createdAt,value
2019-05-01T00:02:16.834Z,48.98
2019-05-01T00:04:47.202Z,50.10
2019-05-01T00:07:36.692Z,49.90
2019-05-01T00:10:06.078Z,47.88
2019-05-01T00:12:35.548Z,49.88
2019-05-01T00:15:04.936Z,49.75
2019-05-01T00:17:35.377Z,53.20
2019-05-01T00:20:05.632Z,50.38
2019-05-01T00:22:34.589Z,51.05
2019-05-01T00:25:03.277Z,54.63
2019-05-01T00:27:31.761Z,54.40
2019-05-01T00:30:00.559Z,55.38
2019-05-01T00:32:29.376Z,54.03
2019-05-01T00:34:57.972Z,48.65
2019-05-01T00:37:27.977Z,51.58
2019-05-01T00:42:27.266Z,44.98
2019-05-01T00:44:56.008Z,50.08
2019-05-01T00:47:24.534Z,46.40
2019-05-01T00:49:52.896Z,46.37
2019-05-01T00:52:22.144Z,48.48
2019-05-01T00:54:52.599Z,48.50
2019-05-01T00:57:27.363Z,48.23
2019-05-01T01:00:10.076Z,49.42
2019-05-01T01:02:40.208Z,47.73
2019-05-01T01:05:08.928Z,44.03
2019-05-01T01:07:39.938Z,42.88
2019-05-01T01:10:08.830Z,46.13
2019-05-01T01:12:39.058Z,45.88
2019-05-01T01:15:07.474Z,46.37
2019-05-01T01:17:40.974Z,47.80
2019-05-01T01:20:12.489Z,50.35
2019-05-01T01:22:42.203Z,51.83
2019-05-01T01:25:10.761Z,51.42
2019-05-01T01:27:43.666Z,54.35
2019-05-01T01:30:12.691Z,56.20
2019-05-01T01:32:45.526Z,55.30
2019-05-01T01:35:14.262Z,50.80
2019-05-01T01:37:45.953Z,52.25
2019-05-01T01:40:14.864Z,51.88
2019-05-01T01:42:48.260Z,50.67
2019-05-01T01:45:34.573Z,46.92
2019-05-01T01:48:13.730Z,42.75
2019-05-01T01:50:42.760Z,41.47
2019-05-01T01:53:11.651Z,39.58
2019-05-01T01:55:40.155Z,34.98
2019-05-01T01:58:09.237Z,33.67
2019-05-01T02:00:39.737Z,32.17
2019-05-01T02:03:09.738Z,31.55
2019-05-01T02:08:09.015Z,33.30
2019-05-01T02:10:42.884Z,30.48
2019-05-01T02:13:08.132Z,31.77
2019-05-01T02:15:36.489Z,30.23
2019-05-01T02:18:08.072Z,30.32
2019-05-01T02:20:36.642Z,27.87
2019-05-01T02:23:09.591Z,24.95
2019-05-01T02:25:39.866Z,27.55
2019-05-01T02:28:26.519Z,26.15
2019-05-01T02:31:27.700Z,24.82
2019-05-01T02:33:44.506Z,22.65
2019-05-01T02:36:14.312Z,22.32
2019-05-01T02:38:44.509Z,19.05
2019-05-01T02:41:13.007Z,18.15
2019-05-01T02:43:44.610Z,17.65
2019-05-01T02:46:13.142Z,17.10
2019-05-01T02:48:48.178Z,17.87
2019-05-01T02:51:16.687Z,18.50
2019-05-01T02:53:51.582Z,21.68
2019-05-01T02:56:24.886Z,20.23
2019-05-01T02:58:53.537Z,19.65
2019-05-01T03:01:21.953Z,20.25
2019-05-01T03:03:51.583Z,19.32
2019-05-01T03:06:20.391Z,19.25
2019-05-01T03:08:49.323Z,17.40
2019-05-01T03:11:20.056Z,18.60
2019-05-01T03:13:48.328Z,17.05
2019-05-01T03:16:18.163Z,18.60
2019-05-01T03:18:53.184Z,19.82
2019-05-01T03:21:23.266Z,19.42
2019-05-01T03:23:59.263Z,17.75
2019-05-01T03:26:27.963Z,18.45
2019-05-01T03:28:57.500Z,16.75
2019-05-01T03:31:28.784Z,14.80
2019-05-01T03:33:58.420Z,14.93
2019-05-01T03:36:26.938Z,15.30
2019-05-01T03:38:55.512Z,15.53
2019-05-01T03:41:23.999Z,15.85
2019-05-01T03:43:52.371Z,17.20
2019-05-01T03:46:20.718Z,17.10
2019-05-01T03:48:49.035Z,15.15
2019-05-01T03:51:17.483Z,12.60
2019-05-01T03:53:45.872Z,14.87
2019-05-01T03:56:14.475Z,13.35
2019-05-01T03:58:42.856Z,14.87
2019-05-01T04:01:16.052Z,14.07
2019-05-01T04:03:46.268Z,14.23
2019-05-01T04:06:14.792Z,13.95
2019-05-01T04:08:43.777Z,15.55
2019-05-01T04:11:12.384Z,14.60
2019-05-01T04:13:42.144Z,14.05
2019-05-01T04:16:13.715Z,13.80
2019-05-01T04:18:43.899Z,12.50
2019-05-01T04:21:12.398Z,13.28
2019-05-01T04:23:43.106Z,14.13
2019-05-01T04:26:11.832Z,12.23
2019-05-01T04:28:42.480Z,11.88
2019-05-01T04:31:12.906Z,12.15
2019-05-01T04:33:44.054Z,12.63
2019-05-01T04:36:14.669Z,12.45
2019-05-01T04:38:44.184Z,12.65
2019-05-01T04:41:12.614Z,12.07
2019-05-01T04:43:41.305Z,13.40
2019-05-01T04:46:10.680Z,13.43
2019-05-01T04:48:42.595Z,13.78
2019-05-01T04:51:11.645Z,11.40
2019-05-01T04:53:42.569Z,11.97
2019-05-01T04:56:11.110Z,10.88
2019-05-01T04:58:41.107Z,10.45
2019-05-01T05:03:45.268Z,12.00
2019-05-01T05:06:18.559Z,11.45
2019-05-01T05:08:47.320Z,11.68
2019-05-01T05:11:17.492Z,11.93
2019-05-01T05:13:48.397Z,10.63
2019-05-01T05:16:21.781Z,9.88
2019-05-01T05:18:56.548Z,8.73
2019-05-01T05:21:26.246Z,9.73
2019-05-01T05:23:58.044Z,10.05
2019-05-01T05:26:38.349Z,9.53
2019-05-01T05:29:06.476Z,9.48
2019-05-01T05:31:35.361Z,9.33
2019-05-01T05:34:05.775Z,8.88
2019-05-01T05:36:46.415Z,8.83
2019-05-01T05:39:15.715Z,9.18
2019-05-01T05:42:09.822Z,8.03
2019-05-01T05:44:41.615Z,8.40
2019-05-01T05:47:17.518Z,8.05
2019-05-01T05:49:44.772Z,8.40
2019-05-01T05:52:28.335Z,7.37
2019-05-01T05:54:58.458Z,7.58
2019-05-01T05:57:32.832Z,7.85
2019-05-01T06:00:11.903Z,7.83
2019-05-01T06:03:03.860Z,8.20
2019-05-01T06:05:35.682Z,7.80
2019-05-01T06:08:25.681Z,7.25
2019-05-01T06:13:57.000Z,8.23
2019-05-01T06:16:41.332Z,8.05
2019-05-01T06:19:17.866Z,7.58
2019-05-01T06:22:04.968Z,7.37
2019-05-01T06:24:40.550Z,8.53
2019-05-01T06:27:13.855Z,7.97
2019-05-01T06:29:42.191Z,8.60
2019-05-01T06:32:11.695Z,7.72
2019-05-01T06:34:40.086Z,7.33
2019-05-01T06:37:12.991Z,7.70
2019-05-01T06:39:42.900Z,7.08
2019-05-01T06:42:16.937Z,7.70
2019-05-01T06:44:48.424Z,7.70
2019-05-01T06:47:38.210Z,7.47
2019-05-01T06:50:08.157Z,7.40
2019-05-01T06:52:37.138Z,7.70
2019-05-01T06:55:08.729Z,7.57
2019-05-01T06:57:43.070Z,7.53
2019-05-01T07:00:10.936Z,7.42
2019-05-01T07:02:44.285Z,6.97
2019-05-01T07:05:17.527Z,7.67
2019-05-01T07:07:48.108Z,7.15
2019-05-01T07:10:29.205Z,7.87
2019-05-01T07:12:46.708Z,7.47
2019-05-01T07:15:21.846Z,7.83
2019-05-01T07:17:49.469Z,7.50
2019-05-01T07:20:20.659Z,7.12
2019-05-01T07:22:50.302Z,6.97
2019-05-01T07:27:47.691Z,7.47
2019-05-01T07:30:19.721Z,6.80
2019-05-01T07:32:49.564Z,7.03
2019-05-01T07:35:19.367Z,6.95
2019-05-01T07:37:48.855Z,7.03
2019-05-01T07:40:21.198Z,6.97
2019-05-01T07:43:05.827Z,7.17
2019-05-01T07:45:45.017Z,6.92
2019-05-01T07:48:13.897Z,6.40
2019-05-01T07:50:42.306Z,7.53
2019-05-01T07:53:10.722Z,6.70
2019-05-01T07:55:42.489Z,6.55
2019-05-01T07:58:16.016Z,6.70
2019-05-01T08:01:02.014Z,6.72
2019-05-01T08:03:30.991Z,6.70
2019-05-01T08:05:59.386Z,7.15
2019-05-01T08:08:27.790Z,7.37
2019-05-01T08:10:59.973Z,7.30
2019-05-01T08:13:26.373Z,6.85
2019-05-01T08:15:54.987Z,6.90
2019-05-01T08:18:29.644Z,6.97
2019-05-01T08:21:05.617Z,6.50
2019-05-01T08:23:34.202Z,7.00
2019-05-01T08:26:08.761Z,6.80
2019-05-01T08:28:55.640Z,6.60
2019-05-01T08:31:42.021Z,7.45
2019-05-01T08:34:25.299Z,6.42
2019-05-01T08:36:53.428Z,7.65
2019-05-01T08:39:22.473Z,7.28
2019-05-01T08:41:51.903Z,7.30
2019-05-01T08:44:24.831Z,6.28
2019-05-01T08:46:54.104Z,7.28
2019-05-01T08:49:34.400Z,6.55
2019-05-01T08:52:04.880Z,6.60
2019-05-01T08:54:34.852Z,6.30
2019-05-01T08:57:07.835Z,7.33
2019-05-01T08:59:35.264Z,6.67
2019-05-01T09:02:09.276Z,6.70
2019-05-01T09:04:35.602Z,6.70
2019-05-01T09:07:04.477Z,7.03
2019-05-01T09:09:33.676Z,6.08
2019-05-01T09:12:06.866Z,5.50
2019-05-01T09:14:36.804Z,5.85
2019-05-01T09:17:06.425Z,6.22
2019-05-01T09:19:38.091Z,6.17
2019-05-01T09:22:14.508Z,6.70
2019-05-01T09:24:47.532Z,5.83
2019-05-01T09:27:29.572Z,6.87
2019-05-01T09:30:21.690Z,6.08
2019-05-01T09:32:54.233Z,6.22
2019-05-01T09:35:20.267Z,4.92
2019-05-01T09:37:49.979Z,5.65
2019-05-01T09:40:20.879Z,6.33
2019-05-01T09:42:54.765Z,5.80
2019-05-01T09:45:21.209Z,5.67
2019-05-01T09:47:52.798Z,6.03
2019-05-01T09:50:25.771Z,6.12
2019-05-01T09:52:59.755Z,5.78
2019-05-01T09:55:43.959Z,6.78
2019-05-01T09:58:16.340Z,6.12
2019-05-01T10:00:48.733Z,5.35
2019-05-01T10:03:20.853Z,6.45
2019-05-01T10:05:49.612Z,5.92
2019-05-01T10:08:19.554Z,6.42
2019-05-01T10:10:48.736Z,6.47
2019-05-01T10:13:22.532Z,6.40
2019-05-01T10:15:49.952Z,7.47
2019-05-01T10:18:18.727Z,6.15
2019-05-01T10:20:47.739Z,5.90
2019-05-01T10:23:16.321Z,6.15
2019-05-01T10:25:54.629Z,6.43
2019-05-01T10:28:45.052Z,5.53
2019-05-01T10:31:27.618Z,6.75
2019-05-01T10:34:14.924Z,6.28
2019-05-01T10:36:49.766Z,5.47
2019-05-01T10:39:19.745Z,6.15
2019-05-01T10:41:50.104Z,5.30
2019-05-01T10:44:19.522Z,5.20
2019-05-01T10:49:28.867Z,6.08
2019-05-01T10:51:57.281Z,5.08
2019-05-01T10:54:25.660Z,5.45
2019-05-01T10:56:58.742Z,5.40
2019-05-01T10:59:24.294Z,5.53
2019-05-01T11:01:54.726Z,5.62
2019-05-01T11:04:23.769Z,5.78
2019-05-01T11:06:52.675Z,5.62
2019-05-01T11:09:21.371Z,5.45
2019-05-01T11:11:49.699Z,5.10
2019-05-01T11:14:19.772Z,5.30
2019-05-01T11:16:48.633Z,5.50
2019-05-01T11:19:16.894Z,5.15
2019-05-01T11:21:45.263Z,5.20
2019-05-01T11:24:13.583Z,5.70
2019-05-01T11:26:41.888Z,5.17
2019-05-01T11:29:10.233Z,5.22
2019-05-01T11:31:49.444Z,5.50
2019-05-01T11:34:35.523Z,5.05
2019-05-01T11:37:20.462Z,4.90
2019-05-01T11:39:53.209Z,5.00
2019-05-01T11:42:21.670Z,4.95
2019-05-01T11:44:50.021Z,4.67
2019-05-01T11:47:18.878Z,4.12
2019-05-01T11:49:47.534Z,3.85
2019-05-01T11:52:16.646Z,4.70
2019-05-01T11:54:54.146Z,5.03
2019-05-01T11:57:22.591Z,4.67
2019-05-01T11:59:54.519Z,4.65
2019-05-01T12:02:24.860Z,3.70
2019-05-01T12:04:53.428Z,3.52
2019-05-01T12:07:23.682Z,4.22
2019-05-01T12:09:52.301Z,4.83
2019-05-01T12:12:23.647Z,4.10
2019-05-01T12:14:52.503Z,4.40
2019-05-01T12:17:26.436Z,4.60
2019-05-01T12:19:55.080Z,3.50
2019-05-01T12:22:23.825Z,3.47
2019-05-01T12:24:54.228Z,3.92
2019-05-01T12:27:23.591Z,4.15
2019-05-01T12:29:54.978Z,4.30
2019-05-01T12:32:34.790Z,5.10
2019-05-01T12:35:02.150Z,4.37
2019-05-01T12:37:33.727Z,4.22
2019-05-01T12:40:02.173Z,4.80
2019-05-01T12:42:32.527Z,4.35
2019-05-01T12:45:03.233Z,4.53
2019-05-01T12:47:42.182Z,4.65
2019-05-01T12:50:15.510Z,4.50
2019-05-01T12:52:46.974Z,4.40
2019-05-01T12:55:36.470Z,4.92
2019-05-01T12:58:06.222Z,4.50
2019-05-01T13:00:42.967Z,5.00
2019-05-01T13:03:18.789Z,5.00
2019-05-01T13:05:50.354Z,4.75
2019-05-01T13:08:19.134Z,4.95
2019-05-01T13:10:47.803Z,4.70
2019-05-01T13:13:20.203Z,4.58
2019-05-01T13:15:56.338Z,4.53
2019-05-01T13:18:28.370Z,4.25
2019-05-01T13:20:57.332Z,4.22
2019-05-01T13:23:26.263Z,3.55
2019-05-01T13:25:57.946Z,3.20
2019-05-01T13:28:44.748Z,3.80
2019-05-01T13:31:31.652Z,3.37
2019-05-01T13:34:00.432Z,3.35
2019-05-01T13:36:30.809Z,3.45
2019-05-01T13:38:59.719Z,3.02
2019-05-01T13:41:29.981Z,3.05
2019-05-01T13:43:58.681Z,3.55
2019-05-01T13:46:27.978Z,3.62
2019-05-01T13:48:57.099Z,3.58
2019-05-01T13:51:28.418Z,3.80
2019-05-01T13:53:57.825Z,3.85
2019-05-01T13:56:32.448Z,3.47
2019-05-01T13:59:01.662Z,3.22
2019-05-01T14:01:33.015Z,3.57
2019-05-01T14:04:03.362Z,3.92
2019-05-01T14:06:32.116Z,3.67
2019-05-01T14:09:02.677Z,3.37
2019-05-01T14:11:34.738Z,4.25
2019-05-01T14:14:04.162Z,4.17
2019-05-01T14:16:33.121Z,4.42
2019-05-01T14:19:03.310Z,5.10
2019-05-01T14:21:38.899Z,4.62
2019-05-01T14:24:28.115Z,4.97
2019-05-01T14:26:57.935Z,4.58
2019-05-01T14:29:27.394Z,5.80
2019-05-01T14:31:56.467Z,6.12
2019-05-01T14:34:25.763Z,5.70
2019-05-01T14:36:54.653Z,5.87
2019-05-01T14:39:23.203Z,5.90
2019-05-01T14:41:51.871Z,6.80
2019-05-01T14:44:20.534Z,7.42
2019-05-01T14:46:51.380Z,6.90
2019-05-01T14:49:22.689Z,6.55
2019-05-01T14:51:56.117Z,7.67
2019-05-01T14:54:27.033Z,6.78
2019-05-01T14:57:00.404Z,8.20
2019-05-01T14:59:28.869Z,6.97
2019-05-01T15:01:57.337Z,8.33
2019-05-01T15:04:28.624Z,8.15
2019-05-01T15:06:58.654Z,7.62
2019-05-01T15:11:58.652Z,7.97
2019-05-01T15:14:29.059Z,8.68
2019-05-01T15:17:04.545Z,8.30
2019-05-01T15:19:44.332Z,9.10
2019-05-01T15:22:12.741Z,10.20
2019-05-01T15:24:41.200Z,10.13
2019-05-01T15:27:12.114Z,10.00
2019-05-01T15:29:47.048Z,10.08
2019-05-01T15:32:17.605Z,9.88
2019-05-01T15:34:46.801Z,10.70
2019-05-01T15:37:16.862Z,10.68
2019-05-01T15:39:47.194Z,10.43
2019-05-01T15:42:34.150Z,10.60
2019-05-01T15:45:02.715Z,10.95
2019-05-01T15:47:31.766Z,11.50
2019-05-01T15:50:00.841Z,11.80
2019-05-01T15:52:30.973Z,11.33
2019-05-01T15:54:59.566Z,10.68
2019-05-01T15:57:28.316Z,11.90
2019-05-01T15:59:56.765Z,11.83
2019-05-01T16:02:25.290Z,12.13
2019-05-01T16:04:54.104Z,18.17
2019-05-01T16:07:23.168Z,12.35
2019-05-01T16:09:51.636Z,13.50
2019-05-01T16:12:28.001Z,13.28
2019-05-01T16:14:56.860Z,12.90
2019-05-01T16:17:28.468Z,12.88
2019-05-01T16:19:57.066Z,14.43
2019-05-01T16:22:26.753Z,13.60
2019-05-01T16:24:56.575Z,13.25
2019-05-01T16:27:25.491Z,13.80
2019-05-01T16:29:54.267Z,14.35
2019-05-01T16:32:22.725Z,14.78
2019-05-01T16:34:51.086Z,14.50
2019-05-01T16:37:19.831Z,15.40
2019-05-01T16:39:51.314Z,16.30
2019-05-01T16:42:21.355Z,16.32
2019-05-01T16:47:19.851Z,15.08
2019-05-01T16:49:57.513Z,15.75
2019-05-01T16:52:27.911Z,16.05
2019-05-01T16:54:59.464Z,17.70
2019-05-01T16:59:54.178Z,16.32
2019-05-01T17:02:33.219Z,15.93
2019-05-01T17:05:10.531Z,17.10
2019-05-01T17:07:49.418Z,16.70
2019-05-01T17:10:22.304Z,17.02
2019-05-01T17:12:52.530Z,16.95
2019-05-01T17:15:26.248Z,16.80
2019-05-01T17:17:55.080Z,18.15
2019-05-01T17:20:24.667Z,19.05
2019-05-01T17:22:56.042Z,18.30
2019-05-01T17:25:25.803Z,17.87
2019-05-01T17:27:57.998Z,18.67
2019-05-01T17:30:43.177Z,18.52
2019-05-01T17:33:20.135Z,18.30
2019-05-01T17:35:44.806Z,19.07
2019-05-01T17:40:47.369Z,19.17
2019-05-01T17:43:15.317Z,19.50
2019-05-01T17:45:43.954Z,20.82
2019-05-01T17:48:13.433Z,22.50
2019-05-01T17:50:49.907Z,21.70
2019-05-01T17:53:21.140Z,21.20
2019-05-01T17:55:50.275Z,21.23
2019-05-01T17:58:21.221Z,20.77
2019-05-01T18:00:54.124Z,21.68
2019-05-01T18:03:27.290Z,22.27
2019-05-01T18:06:01.226Z,22.55
2019-05-01T18:08:31.015Z,23.55
2019-05-01T18:10:59.929Z,21.97
2019-05-01T18:13:28.959Z,21.27
2019-05-01T18:15:57.912Z,21.70
2019-05-01T18:18:26.265Z,22.62
2019-05-01T18:20:56.483Z,22.07
2019-05-01T18:23:43.028Z,21.65
2019-05-01T18:26:14.983Z,23.00
2019-05-01T18:28:45.451Z,23.65
2019-05-01T18:31:17.557Z,22.70
2019-05-01T18:33:47.428Z,22.65
2019-05-01T18:36:19.862Z,23.40
2019-05-01T18:39:02.018Z,22.62
2019-05-01T18:41:38.137Z,22.77
2019-05-01T18:44:10.235Z,24.02
2019-05-01T18:46:37.274Z,22.45
2019-05-01T18:49:05.797Z,24.65
2019-05-01T18:51:36.182Z,24.67
2019-05-01T18:54:04.527Z,23.52
2019-05-01T18:56:32.902Z,23.27
2019-05-01T18:59:01.658Z,24.37
2019-05-01T19:01:30.159Z,24.65
2019-05-01T19:03:58.516Z,25.10
2019-05-01T19:06:40.140Z,25.55
2019-05-01T19:08:57.174Z,23.87
2019-05-01T19:11:26.694Z,26.45
2019-05-01T19:13:55.641Z,26.27
2019-05-01T19:16:24.254Z,24.77
2019-05-01T19:18:52.581Z,25.32
2019-05-01T19:21:23.859Z,26.02
2019-05-01T19:23:52.502Z,26.10
2019-05-01T19:26:21.094Z,25.85
2019-05-01T19:28:50.367Z,26.12
2019-05-01T19:31:21.430Z,26.87
2019-05-01T19:33:49.990Z,25.62
2019-05-01T19:36:22.861Z,26.73
2019-05-01T19:38:51.083Z,24.77
2019-05-01T19:41:19.968Z,27.87
2019-05-01T19:43:49.326Z,27.82
2019-05-01T19:46:18.231Z,28.20
2019-05-01T19:48:50.670Z,29.12
2019-05-01T19:51:19.212Z,28.90
2019-05-01T19:53:51.834Z,29.20
2019-05-01T19:56:21.474Z,30.40
2019-05-01T19:58:49.657Z,29.37
2019-05-01T20:01:18.243Z,30.17
2019-05-01T20:03:48.019Z,30.23
2019-05-01T20:06:16.603Z,28.40
2019-05-01T20:08:45.948Z,28.75
2019-05-01T20:11:15.044Z,28.75
2019-05-01T20:13:45.469Z,29.37
2019-05-01T20:16:14.751Z,31.20
2019-05-01T20:18:43.814Z,30.65
2019-05-01T20:21:12.748Z,31.27
2019-05-01T20:23:41.271Z,30.95
2019-05-01T20:26:09.835Z,30.52
2019-05-01T20:28:38.317Z,30.15
2019-05-01T20:31:06.733Z,29.90
2019-05-01T20:33:39.044Z,30.17
2019-05-01T20:36:06.666Z,30.52
2019-05-01T20:38:35.273Z,31.95
2019-05-01T20:41:03.777Z,30.92
2019-05-01T20:43:33.547Z,30.92
2019-05-01T20:46:02.122Z,30.62
2019-05-01T20:48:30.524Z,31.68
2019-05-01T20:50:58.992Z,31.97
2019-05-01T20:53:27.429Z,33.38
2019-05-01T20:56:03.782Z,32.60
2019-05-01T20:58:32.479Z,33.90
2019-05-01T21:01:02.713Z,33.53
2019-05-01T21:03:32.096Z,33.55
2019-05-01T21:06:07.844Z,31.60
2019-05-01T21:08:39.318Z,33.35
2019-05-01T21:11:18.546Z,29.98
2019-05-01T21:13:47.525Z,31.48
2019-05-01T21:16:15.940Z,32.00
2019-05-01T21:18:44.773Z,29.85
2019-05-01T21:21:14.291Z,31.10
2019-05-01T21:23:48.137Z,29.95
2019-05-01T21:26:14.287Z,31.70
2019-05-01T21:28:44.898Z,28.85
2019-05-01T21:31:27.833Z,29.75
2019-05-01T21:33:58.673Z,29.98
2019-05-01T21:36:40.655Z,27.75
2019-05-01T21:39:07.288Z,28.10
2019-05-01T21:41:36.234Z,29.77
2019-05-01T21:44:08.755Z,30.08
2019-05-01T21:46:39.148Z,29.32
2019-05-01T21:49:12.787Z,28.45
2019-05-01T21:51:42.361Z,29.35
2019-05-01T21:54:18.886Z,29.15
2019-05-01T21:56:41.463Z,29.90
2019-05-01T21:59:35.360Z,31.55
2019-05-01T22:02:05.435Z,30.55
2019-05-01T22:04:34.099Z,29.82
2019-05-01T22:07:03.820Z,32.25
2019-05-01T22:09:38.534Z,33.53
2019-05-01T22:12:12.985Z,31.73
2019-05-01T22:14:52.564Z,32.85
2019-05-01T22:17:43.127Z,33.63
2019-05-01T22:20:20.628Z,32.70
2019-05-01T22:22:53.950Z,32.98
2019-05-01T22:25:38.598Z,33.20
2019-05-01T22:28:18.886Z,32.83
2019-05-01T22:31:05.373Z,33.67
2019-05-01T22:33:31.983Z,32.50
2019-05-01T22:36:05.841Z,32.23
2019-05-01T22:38:35.694Z,33.53
2019-05-01T22:41:09.016Z,34.85
2019-05-01T22:43:40.226Z,32.10
2019-05-01T22:46:13.716Z,33.23
2019-05-01T22:48:43.977Z,33.55
2019-05-01T22:51:16.254Z,33.18
2019-05-01T22:53:56.565Z,32.50
2019-05-01T22:56:25.856Z,32.98
2019-05-01T22:58:55.902Z,36.00
2019-05-01T23:01:27.742Z,34.53
2019-05-01T23:04:01.353Z,35.13
2019-05-01T23:06:32.082Z,33.95
2019-05-01T23:09:03.706Z,34.95
2019-05-01T23:11:34.681Z,34.50
2019-05-01T23:14:05.170Z,35.80
2019-05-01T23:16:35.876Z,36.48
2019-05-01T23:19:06.758Z,37.23
2019-05-01T23:21:36.683Z,35.43
2019-05-01T23:24:09.662Z,36.10
2019-05-01T23:26:39.622Z,36.20
2019-05-01T23:29:09.565Z,37.28
2019-05-01T23:34:08.720Z,36.58
2019-05-01T23:36:41.219Z,33.83
2019-05-01T23:39:14.881Z,35.98
2019-05-01T23:41:47.185Z,33.05
2019-05-01T23:44:17.006Z,31.05
2019-05-01T23:49:15.518Z,32.55
2019-05-01T23:51:48.248Z,31.73
2019-05-01T23:54:18.342Z,32.98
2019-05-01T23:59:18.803Z,32.53
